createdAt,value
2023-05-08T00:00:18.911Z,27.33
2023-05-08T00:02:51.656Z,30.20
2023-05-08T00:05:20.231Z,27.90
2023-05-08T00:07:48.465Z,28.33
2023-05-08T00:10:16.673Z,29.13
2023-05-08T00:12:46.219Z,39.50
2023-05-08T00:15:14.380Z,38.27
2023-05-08T00:17:48.144Z,33.93
2023-05-08T00:20:16.463Z,60.87
2023-05-08T00:22:50.276Z,46.10
2023-05-08T00:25:18.751Z,43.93
2023-05-08T00:27:48.312Z,34.60
2023-05-08T00:30:18.540Z,48.13
2023-05-08T00:32:47.065Z,73.17
2023-05-08T00:35:15.488Z,66.33
2023-05-08T00:37:43.819Z,36.70
2023-05-08T00:40:13.278Z,38.80
2023-05-08T00:42:41.734Z,36.57
2023-05-08T00:45:14.624Z,38.30
2023-05-08T00:47:43.456Z,49.37
2023-05-08T00:50:12.966Z,85.53
2023-05-08T00:52:44.069Z,67.20
2023-05-08T00:55:12.356Z,68.80
2023-05-08T00:57:44.269Z,66.87
2023-05-08T01:00:19.431Z,78.07
2023-05-08T01:02:48.495Z,69.50
2023-05-08T01:05:16.763Z,55.47
2023-05-08T01:07:45.214Z,45.57
2023-05-08T01:10:13.574Z,59.50
2023-05-08T01:13:06.398Z,44.67
2023-05-08T01:15:44.878Z,41.50
2023-05-08T01:18:21.195Z,46.20
2023-05-08T01:21:14.575Z,44.77
2023-05-08T01:24:37.704Z,41.40
2023-05-08T01:27:54.609Z,69.23
2023-05-08T01:31:02.869Z,49.70
2023-05-08T01:33:37.898Z,58.23
2023-05-08T01:36:22.227Z,41.93
2023-05-08T01:39:05.279Z,37.27
2023-05-08T01:41:42.242Z,40.80
2023-05-08T01:44:17.916Z,69.63
2023-05-08T01:46:51.300Z,73.73
2023-05-08T01:49:31.700Z,96.17
2023-05-08T01:52:04.688Z,85.13
2023-05-08T01:54:43.993Z,121.00
2023-05-08T01:57:13.616Z,96.53
2023-05-08T01:59:44.100Z,78.47
2023-05-08T02:02:13.263Z,88.63
2023-05-08T02:04:45.529Z,54.27
2023-05-08T02:07:13.988Z,49.17
2023-05-08T02:09:44.029Z,50.70
2023-05-08T02:12:14.434Z,52.10
2023-05-08T02:14:45.976Z,46.33
2023-05-08T02:17:17.731Z,44.90
2023-05-08T02:19:49.012Z,54.23
2023-05-08T02:22:19.633Z,55.27
2023-05-08T02:24:48.177Z,83.37
2023-05-08T02:27:17.590Z,57.80
2023-05-08T02:29:46.136Z,59.90
2023-05-08T02:32:17.280Z,100.27
2023-05-08T02:35:01.889Z,110.80
2023-05-08T02:37:32.181Z,74.67
2023-05-08T02:40:00.830Z,81.73
2023-05-08T02:42:29.124Z,62.73
2023-05-08T02:44:57.502Z,65.70
2023-05-08T02:47:31.087Z,67.87
2023-05-08T02:50:05.981Z,68.30
2023-05-08T02:52:44.147Z,97.73
2023-05-08T02:55:24.214Z,118.27
2023-05-08T02:58:04.095Z,146.77
2023-05-08T03:00:38.957Z,239.93
2023-05-08T03:03:16.576Z,213.07
2023-05-08T03:05:52.634Z,211.50
2023-05-08T03:08:27.147Z,169.47
2023-05-08T03:11:00.941Z,640.83
2023-05-08T03:13:33.307Z,417.17
2023-05-08T03:16:04.632Z,236.87
2023-05-08T03:18:37.138Z,349.73
2023-05-08T03:21:09.239Z,514.80
2023-05-08T03:23:40.407Z,1014.17
2023-05-08T03:26:09.789Z,364.43
2023-05-08T03:28:39.482Z,708.83
2023-05-08T03:31:08.363Z,313.83
2023-05-08T03:33:39.844Z,729.73
2023-05-08T03:36:10.315Z,744.47
2023-05-08T03:38:38.592Z,766.27
2023-05-08T03:41:08.818Z,794.93
2023-05-08T03:43:38.989Z,927.57
2023-05-08T03:46:08.071Z,568.07
2023-05-08T03:48:36.996Z,492.03
2023-05-08T03:51:06.516Z,228.07
2023-05-08T03:53:38.588Z,221.87
2023-05-08T03:56:07.173Z,162.10
2023-05-08T03:58:42.700Z,215.93
2023-05-08T04:01:29.709Z,231.33
2023-05-08T04:04:08.113Z,149.40
2023-05-08T04:06:50.097Z,129.47
2023-05-08T04:09:35.598Z,139.23
2023-05-08T04:12:13.836Z,177.33
2023-05-08T04:14:49.574Z,125.67
2023-05-08T04:17:29.046Z,138.60
2023-05-08T04:20:06.017Z,102.63
2023-05-08T04:22:36.516Z,123.20
2023-05-08T04:25:10.287Z,94.10
2023-05-08T04:27:39.425Z,144.40
2023-05-08T04:30:10.871Z,128.67
2023-05-08T04:32:43.428Z,137.60
2023-05-08T04:35:14.469Z,126.10
2023-05-08T04:37:43.933Z,137.33
2023-05-08T04:40:14.559Z,133.20
2023-05-08T04:42:47.185Z,136.50
2023-05-08T04:45:20.218Z,97.67
2023-05-08T04:47:48.474Z,144.30
2023-05-08T04:50:17.353Z,119.60
2023-05-08T04:52:45.516Z,150.83
2023-05-08T04:55:15.148Z,144.33
2023-05-08T04:57:44.531Z,121.60
2023-05-08T05:00:15.012Z,143.10
2023-05-08T05:02:44.740Z,125.70
2023-05-08T05:05:13.348Z,107.57
2023-05-08T05:07:42.503Z,122.10
2023-05-08T05:10:11.973Z,85.67
2023-05-08T05:12:41.550Z,94.97
2023-05-08T05:15:11.680Z,93.90
2023-05-08T05:17:41.029Z,92.67
2023-05-08T05:20:12.264Z,117.97
2023-05-08T05:22:40.747Z,136.70
2023-05-08T05:25:11.179Z,108.90
2023-05-08T05:27:41.452Z,126.90
2023-05-08T05:30:10.939Z,95.20
2023-05-08T05:32:39.520Z,102.20
2023-05-08T05:35:12.115Z,113.60
2023-05-08T05:37:41.308Z,100.57
2023-05-08T05:40:13.414Z,114.57
2023-05-08T05:42:44.343Z,191.47
2023-05-08T05:45:13.435Z,203.03
2023-05-08T05:47:50.506Z,183.20
2023-05-08T05:50:22.561Z,161.90
2023-05-08T05:52:51.078Z,135.33
2023-05-08T05:55:19.432Z,145.23
2023-05-08T05:57:50.006Z,142.27
2023-05-08T06:00:19.516Z,145.00
2023-05-08T06:02:54.704Z,142.40
2023-05-08T06:05:23.160Z,182.63
2023-05-08T06:07:51.413Z,130.37
2023-05-08T06:10:20.007Z,178.90
2023-05-08T06:12:49.579Z,162.50
2023-05-08T06:15:18.494Z,237.73
2023-05-08T06:17:48.123Z,264.30
2023-05-08T06:20:16.480Z,250.23
2023-05-08T06:22:44.716Z,222.90
2023-05-08T06:25:13.154Z,194.70
2023-05-08T06:27:41.494Z,203.43
2023-05-08T06:30:12.754Z,171.83
2023-05-08T06:32:41.072Z,235.17
2023-05-08T06:35:12.302Z,218.47
2023-05-08T06:37:40.695Z,209.97
2023-05-08T06:40:12.529Z,190.63
2023-05-08T06:42:42.085Z,210.03
2023-05-08T06:45:12.576Z,215.47
2023-05-08T06:47:41.226Z,194.27
2023-05-08T06:50:10.614Z,205.80
2023-05-08T06:52:40.781Z,192.80
2023-05-08T06:55:09.980Z,193.33
2023-05-08T06:57:43.389Z,196.00
2023-05-08T07:00:15.002Z,192.50
2023-05-08T07:02:43.263Z,207.40
2023-05-08T07:05:11.853Z,192.90
2023-05-08T07:07:40.248Z,183.50
2023-05-08T07:10:09.597Z,184.97
2023-05-08T07:12:38.112Z,190.00
2023-05-08T07:15:17.789Z,183.10
2023-05-08T07:17:54.920Z,182.80
2023-05-08T07:20:24.425Z,183.47
2023-05-08T07:22:52.863Z,197.03
2023-05-08T07:25:21.025Z,190.93
2023-05-08T07:27:49.430Z,169.23
2023-05-08T07:30:17.885Z,165.67
2023-05-08T07:32:46.127Z,150.77
2023-05-08T07:35:15.839Z,162.80
2023-05-08T07:37:44.679Z,155.43
2023-05-08T07:40:13.279Z,159.20
2023-05-08T07:42:42.783Z,153.03
2023-05-08T07:45:13.992Z,146.27
2023-05-08T07:47:51.409Z,138.70
2023-05-08T07:50:22.276Z,135.77
2023-05-08T07:52:50.995Z,132.37
2023-05-08T07:55:22.599Z,132.57
2023-05-08T07:57:50.912Z,121.80
2023-05-08T08:00:22.800Z,121.87
2023-05-08T08:02:53.215Z,113.57
2023-05-08T08:05:23.187Z,115.40
2023-05-08T08:07:56.941Z,110.27
2023-05-08T08:10:35.814Z,100.33
2023-05-08T08:13:16.039Z,103.73
2023-05-08T08:15:44.270Z,101.97
2023-05-08T08:18:13.033Z,103.23
2023-05-08T08:20:42.710Z,101.60
2023-05-08T08:23:10.933Z,108.80
2023-05-08T08:25:42.494Z,114.07
2023-05-08T08:28:16.302Z,98.17
2023-05-08T08:30:44.461Z,98.90
2023-05-08T08:33:12.783Z,104.40
2023-05-08T08:35:45.139Z,89.63
2023-05-08T08:38:13.516Z,88.67
2023-05-08T08:40:41.895Z,92.83
2023-05-08T08:43:10.943Z,86.97
2023-05-08T08:45:39.614Z,88.67
2023-05-08T08:48:12.643Z,91.43
2023-05-08T08:50:47.255Z,99.50
2023-05-08T08:53:25.586Z,97.20
2023-05-08T08:55:57.057Z,91.37
2023-05-08T08:58:36.526Z,85.60
2023-05-08T09:01:08.957Z,92.27
2023-05-08T09:03:37.393Z,88.03
2023-05-08T09:06:07.764Z,92.50
2023-05-08T09:08:36.366Z,85.60
2023-05-08T09:11:06.924Z,89.90
2023-05-08T09:13:35.293Z,90.57
2023-05-08T09:16:03.881Z,84.27
2023-05-08T09:18:32.323Z,92.13
2023-05-08T09:21:01.821Z,83.67
2023-05-08T09:23:31.569Z,79.17
2023-05-08T09:26:01.758Z,87.97
2023-05-08T09:28:36.078Z,85.87
2023-05-08T09:31:10.100Z,88.90
2023-05-08T09:33:49.254Z,89.20
2023-05-08T09:36:29.408Z,85.17
2023-05-08T09:39:02.766Z,89.37
2023-05-08T09:41:35.488Z,89.90
2023-05-08T09:44:07.029Z,84.07
2023-05-08T09:46:36.163Z,86.50
2023-05-08T09:49:07.764Z,89.80
2023-05-08T09:51:37.669Z,80.97
2023-05-08T09:54:25.386Z,85.10
2023-05-08T09:56:54.471Z,71.93
2023-05-08T09:59:30.839Z,71.20
2023-05-08T10:02:11.021Z,63.73
2023-05-08T10:04:42.305Z,72.57
2023-05-08T10:07:10.466Z,78.40
2023-05-08T10:09:50.319Z,77.47
2023-05-08T10:12:22.253Z,89.47
2023-05-08T10:14:50.774Z,77.80
2023-05-08T10:17:31.536Z,68.20
2023-05-08T10:20:04.904Z,69.93
2023-05-08T10:22:37.976Z,64.23
2023-05-08T10:25:17.228Z,58.73
2023-05-08T10:27:54.921Z,64.20
2023-05-08T10:30:28.221Z,59.73
2023-05-08T10:32:59.348Z,55.30
2023-05-08T10:35:28.361Z,63.97
2023-05-08T10:37:58.230Z,61.20
2023-05-08T10:40:28.022Z,56.23
2023-05-08T10:42:58.524Z,60.23
2023-05-08T10:45:29.773Z,51.43
2023-05-08T10:48:09.775Z,56.13
2023-05-08T10:50:56.471Z,57.83
2023-05-08T10:53:37.853Z,50.33
2023-05-08T10:56:09.493Z,55.27
2023-05-08T10:58:39.492Z,59.23
2023-05-08T11:01:20.178Z,58.53
2023-05-08T11:03:51.974Z,60.43
2023-05-08T11:06:45.969Z,53.07
2023-05-08T11:09:25.377Z,56.33
2023-05-08T11:12:09.228Z,54.20
2023-05-08T11:14:43.493Z,56.60
2023-05-08T11:17:13.804Z,55.27
2023-05-08T11:20:02.235Z,49.53
2023-05-08T11:22:33.214Z,49.60
2023-05-08T11:25:05.410Z,47.47
2023-05-08T11:27:41.522Z,45.17
2023-05-08T11:30:35.913Z,51.53
2023-05-08T11:33:30.710Z,48.77
2023-05-08T11:36:02.530Z,48.17
2023-05-08T11:38:38.145Z,51.07
2023-05-08T11:41:08.730Z,43.97
2023-05-08T11:44:20.953Z,45.97
2023-05-08T11:46:53.684Z,54.50
2023-05-08T11:49:27.127Z,61.20
2023-05-08T11:52:00.803Z,58.93
2023-05-08T11:54:33.658Z,60.30
2023-05-08T11:57:02.858Z,70.13
2023-05-08T11:59:37.719Z,63.07
2023-05-08T12:02:09.196Z,60.13
2023-05-08T12:04:50.986Z,60.63
2023-05-08T12:07:20.628Z,48.90
2023-05-08T12:09:53.526Z,50.80
2023-05-08T12:12:26.572Z,50.07
2023-05-08T12:14:56.393Z,44.83
2023-05-08T12:17:24.879Z,45.50
2023-05-08T12:19:56.628Z,47.67
2023-05-08T12:22:26.388Z,45.83
2023-05-08T12:24:55.835Z,42.63
2023-05-08T12:27:26.445Z,48.70
2023-05-08T12:29:56.043Z,44.17
2023-05-08T12:32:24.929Z,45.20
2023-05-08T12:34:56.684Z,44.00
2023-05-08T12:37:27.980Z,44.27
2023-05-08T12:39:56.488Z,44.60
2023-05-08T12:42:40.709Z,46.43
2023-05-08T12:45:20.787Z,52.13
2023-05-08T12:47:50.663Z,45.50
2023-05-08T12:50:25.225Z,48.00
2023-05-08T12:52:54.344Z,46.90
2023-05-08T12:55:27.311Z,51.30
2023-05-08T12:58:04.326Z,48.77
2023-05-08T13:00:39.324Z,47.30
2023-05-08T13:03:09.102Z,59.77
2023-05-08T13:05:39.660Z,64.07
2023-05-08T13:08:10.859Z,78.63
2023-05-08T13:10:50.149Z,83.03
2023-05-08T13:13:20.789Z,95.70
2023-05-08T13:15:52.120Z,103.27
2023-05-08T13:18:22.570Z,126.07
2023-05-08T13:20:50.820Z,123.40
2023-05-08T13:23:18.995Z,123.50
2023-05-08T13:25:47.311Z,138.40
2023-05-08T13:28:15.866Z,140.07
2023-05-08T13:30:45.156Z,143.77
2023-05-08T13:33:14.737Z,145.57
2023-05-08T13:35:44.863Z,147.20
2023-05-08T13:38:13.175Z,141.77
2023-05-08T13:40:41.565Z,140.87
2023-05-08T13:43:09.841Z,135.13
2023-05-08T13:45:40.916Z,129.53
2023-05-08T13:48:09.219Z,116.40
2023-05-08T13:50:42.062Z,139.93
2023-05-08T13:53:11.413Z,120.50
2023-05-08T13:55:39.872Z,113.90
2023-05-08T13:58:08.187Z,106.30
2023-05-08T14:00:36.532Z,106.97
2023-05-08T14:03:08.914Z,108.43
2023-05-08T14:05:38.570Z,105.67
2023-05-08T14:08:06.769Z,102.70
2023-05-08T14:10:35.018Z,103.10
2023-05-08T14:13:03.280Z,115.43
2023-05-08T14:15:37.092Z,98.27
2023-05-08T14:18:06.432Z,105.20
2023-05-08T14:20:34.670Z,99.63
2023-05-08T14:23:04.260Z,103.23
2023-05-08T14:25:32.417Z,90.30
2023-05-08T14:28:00.661Z,92.20
2023-05-08T14:30:30.896Z,90.57
2023-05-08T14:33:02.123Z,78.60
2023-05-08T14:35:30.404Z,81.60
2023-05-08T14:37:58.831Z,80.90
2023-05-08T14:40:31.485Z,82.20
2023-05-08T14:42:59.750Z,81.97
2023-05-08T14:45:27.997Z,83.63
2023-05-08T14:47:56.179Z,74.93
2023-05-08T14:50:24.679Z,77.37
2023-05-08T14:52:52.906Z,71.17
2023-05-08T14:55:22.087Z,66.93
2023-05-08T14:57:52.817Z,68.07
2023-05-08T15:00:21.535Z,67.03
2023-05-08T15:02:54.341Z,65.60
2023-05-08T15:05:22.849Z,63.60
2023-05-08T15:07:55.815Z,63.13
2023-05-08T15:10:24.321Z,70.03
2023-05-08T15:12:54.041Z,54.50
2023-05-08T15:15:22.481Z,58.73
2023-05-08T15:17:50.713Z,58.00
2023-05-08T15:20:21.279Z,54.87
2023-05-08T15:22:50.806Z,54.90
2023-05-08T15:25:19.407Z,50.43
2023-05-08T15:27:53.806Z,53.87
2023-05-08T15:30:24.965Z,47.40
2023-05-08T15:32:56.336Z,49.43
2023-05-08T15:35:27.343Z,42.00
2023-05-08T15:37:58.634Z,42.47
2023-05-08T15:40:26.847Z,40.77
2023-05-08T15:42:55.113Z,40.00
2023-05-08T15:45:25.095Z,37.30
2023-05-08T15:47:53.293Z,41.80
2023-05-08T15:50:22.289Z,38.07
2023-05-08T15:52:55.569Z,40.83
2023-05-08T15:55:23.957Z,34.80
2023-05-08T15:57:56.622Z,40.27
2023-05-08T16:00:43.972Z,40.37
2023-05-08T16:03:16.566Z,39.63
2023-05-08T16:05:44.897Z,35.43
2023-05-08T16:08:15.043Z,41.37
2023-05-08T16:10:43.724Z,43.10
2023-05-08T16:13:24.073Z,44.93
2023-05-08T16:15:56.636Z,42.17
2023-05-08T16:18:29.530Z,47.50
2023-05-08T16:20:57.929Z,45.70
2023-05-08T16:23:26.404Z,60.03
2023-05-08T16:25:54.821Z,59.83
2023-05-08T16:28:23.008Z,56.50
2023-05-08T16:30:51.265Z,62.10
2023-05-08T16:33:21.339Z,63.07
2023-05-08T16:35:49.713Z,67.63
2023-05-08T16:38:20.470Z,71.60
2023-05-08T16:40:50.655Z,68.80
2023-05-08T16:43:19.016Z,72.30
2023-05-08T16:45:47.359Z,76.23
2023-05-08T16:48:15.527Z,74.50
2023-05-08T16:50:45.127Z,79.83
2023-05-08T16:53:13.336Z,80.37
2023-05-08T16:55:41.625Z,82.83
2023-05-08T16:58:10.205Z,78.80
2023-05-08T17:00:38.676Z,81.23
2023-05-08T17:03:09.867Z,93.10
2023-05-08T17:05:41.027Z,88.90
2023-05-08T17:08:11.828Z,93.43
2023-05-08T17:10:41.372Z,87.53
2023-05-08T17:13:15.572Z,77.40
2023-05-08T17:15:46.907Z,75.63
2023-05-08T17:18:15.192Z,78.87
2023-05-08T17:20:43.419Z,73.33
2023-05-08T17:23:13.156Z,70.47
2023-05-08T17:25:41.423Z,60.33
2023-05-08T17:28:09.610Z,63.07
2023-05-08T17:30:40.294Z,66.60
2023-05-08T17:33:11.336Z,59.53
2023-05-08T17:35:42.183Z,54.50
2023-05-08T17:38:16.985Z,58.37
2023-05-08T17:40:46.654Z,61.13
2023-05-08T17:43:14.904Z,61.73
2023-05-08T17:45:48.318Z,58.37
2023-05-08T17:48:18.948Z,63.20
2023-05-08T17:50:47.159Z,64.93
2023-05-08T17:53:20.055Z,65.93
2023-05-08T17:55:50.868Z,65.23
2023-05-08T17:58:19.047Z,62.87
2023-05-08T18:00:47.186Z,63.63
2023-05-08T18:03:15.862Z,60.33
2023-05-08T18:05:45.936Z,63.27
2023-05-08T18:08:17.408Z,67.03
2023-05-08T18:10:47.548Z,65.10
2023-05-08T18:13:18.268Z,64.00
2023-05-08T18:15:49.625Z,63.87
2023-05-08T18:18:20.542Z,61.67
2023-05-08T18:20:48.730Z,59.03
2023-05-08T18:23:18.361Z,62.00
2023-05-08T18:25:49.582Z,55.53
2023-05-08T18:28:17.848Z,58.03
2023-05-08T18:30:46.146Z,53.90
2023-05-08T18:33:14.430Z,51.03
2023-05-08T18:35:42.539Z,51.73
2023-05-08T18:38:13.814Z,49.33
2023-05-08T18:40:44.839Z,57.50
2023-05-08T18:43:15.937Z,51.77
2023-05-08T18:45:44.127Z,49.30
2023-05-08T18:48:14.579Z,54.83
2023-05-08T18:50:42.783Z,48.67
2023-05-08T18:53:10.971Z,50.10
2023-05-08T18:55:40.709Z,49.60
2023-05-08T18:58:13.629Z,51.53
2023-05-08T19:00:42.131Z,49.43
2023-05-08T19:03:14.969Z,52.03
2023-05-08T19:05:43.310Z,49.10
2023-05-08T19:08:15.749Z,53.13
2023-05-08T19:10:44.045Z,46.20
2023-05-08T19:13:14.423Z,54.57
2023-05-08T19:15:54.145Z,48.23
2023-05-08T19:18:26.970Z,47.50
2023-05-08T19:20:55.191Z,47.57
2023-05-08T19:23:23.646Z,50.10
2023-05-08T19:25:52.879Z,48.43
2023-05-08T19:28:27.774Z,53.70
2023-05-08T19:30:55.977Z,57.00
2023-05-08T19:33:24.348Z,53.23
2023-05-08T19:35:52.513Z,48.27
2023-05-08T19:38:23.652Z,50.97
2023-05-08T19:40:56.296Z,47.50
2023-05-08T19:43:27.486Z,56.50
2023-05-08T19:45:56.844Z,56.30
2023-05-08T19:48:25.295Z,56.73
2023-05-08T19:51:00.301Z,50.93
2023-05-08T19:53:31.384Z,49.67
2023-05-08T19:55:59.632Z,52.60
2023-05-08T19:58:29.219Z,57.70
2023-05-08T20:00:57.450Z,58.47
2023-05-08T20:03:25.812Z,51.57
2023-05-08T20:05:54.909Z,59.03
2023-05-08T20:08:23.150Z,53.90
2023-05-08T20:10:51.519Z,51.43
2023-05-08T20:13:19.916Z,56.67
2023-05-08T20:15:54.081Z,53.73
2023-05-08T20:18:24.383Z,55.50
2023-05-08T20:20:52.588Z,54.93
2023-05-08T20:23:20.762Z,60.17
2023-05-08T20:25:48.984Z,53.20
2023-05-08T20:28:22.268Z,52.07
2023-05-08T20:30:52.753Z,55.90
2023-05-08T20:33:22.377Z,64.53
2023-05-08T20:35:56.619Z,57.57
2023-05-08T20:38:24.876Z,59.90
2023-05-08T20:41:00.128Z,62.07
2023-05-08T20:43:29.338Z,54.67
2023-05-08T20:45:59.102Z,51.30
2023-05-08T20:48:27.550Z,56.60
2023-05-08T20:50:57.620Z,53.53
2023-05-08T20:53:32.045Z,48.30
2023-05-08T20:56:18.642Z,50.40
2023-05-08T20:58:49.945Z,45.53
2023-05-08T21:01:23.132Z,51.60
2023-05-08T21:03:51.420Z,46.93
2023-05-08T21:06:22.444Z,46.57
2023-05-08T21:08:57.829Z,45.77
2023-05-08T21:11:27.837Z,46.73
2023-05-08T21:13:57.846Z,50.40
2023-05-08T21:16:28.966Z,45.67
2023-05-08T21:19:09.841Z,44.77
2023-05-08T21:21:39.021Z,44.67
2023-05-08T21:24:09.857Z,44.03
2023-05-08T21:26:38.031Z,44.20
2023-05-08T21:29:06.397Z,48.13
2023-05-08T21:31:36.371Z,42.37
2023-05-08T21:34:15.035Z,43.20
2023-05-08T21:36:43.443Z,43.70
2023-05-08T21:39:11.611Z,43.93
2023-05-08T21:41:39.797Z,45.83
2023-05-08T21:44:08.796Z,44.70
2023-05-08T21:46:39.903Z,40.53
2023-05-08T21:49:08.352Z,43.60
2023-05-08T21:51:41.840Z,49.37
2023-05-08T21:54:14.162Z,57.13
2023-05-08T21:56:42.380Z,54.63
2023-05-08T21:59:10.562Z,53.50
2023-05-08T22:01:44.841Z,57.10
2023-05-08T22:04:13.055Z,50.40
2023-05-08T22:06:49.059Z,50.93
2023-05-08T22:09:18.828Z,49.90
2023-05-08T22:11:47.012Z,52.97
2023-05-08T22:14:23.990Z,48.67
2023-05-08T22:16:59.075Z,43.07
2023-05-08T22:19:30.057Z,47.73
2023-05-08T22:21:59.587Z,44.93
2023-05-08T22:24:28.146Z,41.67
2023-05-08T22:26:56.345Z,39.77
2023-05-08T22:29:27.911Z,37.00
2023-05-08T22:32:00.282Z,38.27
2023-05-08T22:34:28.465Z,35.77
2023-05-08T22:36:58.928Z,38.70
2023-05-08T22:39:29.700Z,41.27
2023-05-08T22:42:00.355Z,46.93
2023-05-08T22:44:31.706Z,48.50
2023-05-08T22:47:04.404Z,46.93
2023-05-08T22:49:35.300Z,49.87
2023-05-08T22:52:08.288Z,42.53
2023-05-08T22:54:36.779Z,42.37
2023-05-08T22:57:05.196Z,40.77
2023-05-08T22:59:38.582Z,41.80
2023-05-08T23:02:09.760Z,46.93
2023-05-08T23:04:37.975Z,47.03
2023-05-08T23:07:06.934Z,41.60
2023-05-08T23:09:37.657Z,43.87
2023-05-08T23:12:11.367Z,43.57
2023-05-08T23:14:39.487Z,47.00
2023-05-08T23:17:15.115Z,38.67
2023-05-08T23:19:44.819Z,49.20
2023-05-08T23:22:13.097Z,48.97
2023-05-08T23:24:46.283Z,45.30
2023-05-08T23:27:17.204Z,47.10
2023-05-08T23:29:47.228Z,50.43
2023-05-08T23:32:24.741Z,49.30
2023-05-08T23:34:52.994Z,43.03
2023-05-08T23:37:25.926Z,44.97
2023-05-08T23:39:56.493Z,49.97
2023-05-08T23:42:24.654Z,48.53
2023-05-08T23:44:59.344Z,45.90
2023-05-08T23:47:29.993Z,47.73
2023-05-08T23:50:00.219Z,41.23
2023-05-08T23:52:31.416Z,47.17
2023-05-08T23:55:04.857Z,40.27
2023-05-08T23:57:36.059Z,40.23
